sensor_id;sensor_type;location;lat;lon;timestamp;pressure;altitude;pressure_sealevel;temperature;humidity
10852;BME280;5479;52.046;6.314;2023-04-21T00:01:56;101486.63;;;8.47;100.00
10852;BME280;5479;52.046;6.314;2023-04-21T00:04:26;101478.09;;;8.41;100.00
10852;BME280;5479;52.046;6.314;2023-04-21T00:06:55;101482.38;;;8.43;100.00
10852;BME280;5479;52.046;6.314;2023-04-21T00:09:23;101484.56;;;8.32;100.00
10852;BME280;5479;52.046;6.314;2023-04-21T00:11:51;101482.81;;;8.33;100.00
10852;BME280;5479;52.046;6.314;2023-04-21T00:14:18;101478.47;;;8.32;100.00
10852;BME280;5479;52.046;6.314;2023-04-21T00:16:46;101468.50;;;8.38;100.00
10852;BME280;5479;52.046;6.314;2023-04-21T00:19:18;101463.59;;;8.29;100.00
10852;BME280;5479;52.046;6.314;2023-04-21T00:21:45;101460.81;;;8.32;100.00
10852;BME280;5479;52.046;6.314;2023-04-21T00:24:15;101448.31;;;8.37;100.00
10852;BME280;5479;52.046;6.314;2023-04-21T00:26:43;101447.09;;;8.46;100.00
10852;BME280;5479;52.046;6.314;2023-04-21T00:29:10;101440.09;;;8.45;100.00
10852;BME280;5479;52.046;6.314;2023-04-21T00:31:38;101435.31;;;8.33;100.00
10852;BME280;5479;52.046;6.314;2023-04-21T00:34:06;101434.31;;;8.35;100.00
10852;BME280;5479;52.046;6.314;2023-04-21T00:36:34;101441.09;;;8.42;100.00
10852;BME280;5479;52.046;6.314;2023-04-21T00:39:02;101438.19;;;8.27;100.00
10852;BME280;5479;52.046;6.314;2023-04-21T00:41:31;101432.31;;;8.19;100.00
10852;BME280;5479;52.046;6.314;2023-04-21T00:44:03;101428.75;;;8.20;100.00
10852;BME280;5479;52.046;6.314;2023-04-21T00:46:32;101424.16;;;8.25;100.00
10852;BME280;5479;52.046;6.314;2023-04-21T00:49:03;101422.75;;;8.16;100.00
10852;BME280;5479;52.046;6.314;2023-04-21T00:51:33;101420.09;;;8.16;100.00
10852;BME280;5479;52.046;6.314;2023-04-21T00:54:03;101411.16;;;8.20;100.00
10852;BME280;5479;52.046;6.314;2023-04-21T00:56:33;101410.97;;;8.25;100.00
10852;BME280;5479;52.046;6.314;2023-04-21T00:59:02;101415.38;;;8.24;100.00
10852;BME280;5479;52.046;6.314;2023-04-21T01:01:31;101409.78;;;8.33;100.00
10852;BME280;5479;52.046;6.314;2023-04-21T01:04:00;101408.59;;;8.40;100.00
10852;BME280;5479;52.046;6.314;2023-04-21T01:06:28;101407.81;;;8.38;100.00
10852;BME280;5479;52.046;6.314;2023-04-21T01:09:00;101400.56;;;8.43;100.00
10852;BME280;5479;52.046;6.314;2023-04-21T01:11:30;101394.41;;;8.43;100.00
10852;BME280;5479;52.046;6.314;2023-04-21T01:13:59;101395.03;;;8.49;100.00
10852;BME280;5479;52.046;6.314;2023-04-21T01:16:27;101404.41;;;8.57;100.00
10852;BME280;5479;52.046;6.314;2023-04-21T01:18:55;101406.47;;;8.50;100.00
10852;BME280;5479;52.046;6.314;2023-04-21T01:21:23;101392.81;;;8.61;100.00
10852;BME280;5479;52.046;6.314;2023-04-21T01:23:54;101402.97;;;8.49;100.00
10852;BME280;5479;52.046;6.314;2023-04-21T01:26:22;101393.25;;;8.50;100.00
10852;BME280;5479;52.046;6.314;2023-04-21T01:28:50;101395.03;;;8.49;100.00
10852;BME280;5479;52.046;6.314;2023-04-21T01:31:18;101396.50;;;8.57;100.00
10852;BME280;5479;52.046;6.314;2023-04-21T01:33:46;101392.41;;;8.70;100.00
10852;BME280;5479;52.046;6.314;2023-04-21T01:36:15;101393.59;;;8.63;100.00
10852;BME280;5479;52.046;6.314;2023-04-21T01:38:44;101399.44;;;8.71;100.00
10852;BME280;5479;52.046;6.314;2023-04-21T01:41:17;101395.06;;;8.70;100.00
10852;BME280;5479;52.046;6.314;2023-04-21T01:43:45;101387.63;;;8.79;100.00
10852;BME280;5479;52.046;6.314;2023-04-21T01:46:13;101394.38;;;8.65;100.00
10852;BME280;5479;52.046;6.314;2023-04-21T01:48:40;101389.38;;;8.59;100.00
10852;BME280;5479;52.046;6.314;2023-04-21T01:51:08;101390.72;;;8.69;100.00
10852;BME280;5479;52.046;6.314;2023-04-21T01:53:36;101392.81;;;8.61;100.00
10852;BME280;5479;52.046;6.314;2023-04-21T01:56:05;101387.78;;;8.55;100.00
10852;BME280;5479;52.046;6.314;2023-04-21T01:58:34;101387.66;;;8.58;100.00
10852;BME280;5479;52.046;6.314;2023-04-21T02:01:02;101386.22;;;8.51;100.00
10852;BME280;5479;52.046;6.314;2023-04-21T02:03:30;101387.16;;;8.48;100.00
10852;BME280;5479;52.046;6.314;2023-04-21T02:05:58;101384.47;;;8.49;100.00
10852;BME280;5479;52.046;6.314;2023-04-21T02:08:26;101390.66;;;8.48;100.00
10852;BME280;5479;52.046;6.314;2023-04-21T02:10:53;101394.38;;;8.44;100.00
10852;BME280;5479;52.046;6.314;2023-04-21T02:13:21;101392.75;;;8.40;100.00
10852;BME280;5479;52.046;6.314;2023-04-21T02:15:50;101393.59;;;8.42;100.00
10852;BME280;5479;52.046;6.314;2023-04-21T02:18:19;101388.34;;;8.41;100.00
10852;BME280;5479;52.046;6.314;2023-04-21T02:20:47;101393.75;;;8.38;100.00
10852;BME280;5479;52.046;6.314;2023-04-21T02:23:15;101402.66;;;8.35;100.00
10852;BME280;5479;52.046;6.314;2023-04-21T02:25:42;101404.38;;;8.36;100.00
10852;BME280;5479;52.046;6.314;2023-04-21T02:28:10;101397.72;;;8.26;100.00
10852;BME280;5479;52.046;6.314;2023-04-21T02:30:38;101401.06;;;8.31;100.00
10852;BME280;5479;52.046;6.314;2023-04-21T02:33:07;101407.25;;;8.30;100.00
10852;BME280;5479;52.046;6.314;2023-04-21T02:35:35;101402.88;;;8.29;100.00
10852;BME280;5479;52.046;6.314;2023-04-21T02:38:03;101398.75;;;8.22;100.00
10852;BME280;5479;52.046;6.314;2023-04-21T02:40:34;101408.06;;;8.32;100.00
10852;BME280;5479;52.046;6.314;2023-04-21T02:43:02;101403.19;;;8.43;100.00
10852;BME280;5479;52.046;6.314;2023-04-21T02:45:30;101393.31;;;8.48;100.00
10852;BME280;5479;52.046;6.314;2023-04-21T02:47:57;101401.41;;;8.66;100.00
10852;BME280;5479;52.046;6.314;2023-04-21T02:50:27;101382.78;;;8.69;100.00
10852;BME280;5479;52.046;6.314;2023-04-21T02:52:54;101372.41;;;8.64;100.00
10852;BME280;5479;52.046;6.314;2023-04-21T02:55:23;101380.03;;;8.72;100.00
10852;BME280;5479;52.046;6.314;2023-04-21T02:57:51;101383.13;;;8.61;100.00
10852;BME280;5479;52.046;6.314;2023-04-21T03:00:19;101375.03;;;8.64;100.00
10852;BME280;5479;52.046;6.314;2023-04-21T03:02:47;101382.78;;;8.69;100.00
10852;BME280;5479;52.046;6.314;2023-04-21T03:05:15;101369.47;;;8.72;100.00
10852;BME280;5479;52.046;6.314;2023-04-21T03:07:44;101362.84;;;8.62;100.00
10852;BME280;5479;52.046;6.314;2023-04-21T03:10:12;101364.31;;;8.69;100.00
10852;BME280;5479;52.046;6.314;2023-04-21T03:12:40;101376.03;;;8.41;100.00
10852;BME280;5479;52.046;6.314;2023-04-21T03:15:07;101378.53;;;8.44;100.00
10852;BME280;5479;52.046;6.314;2023-04-21T03:17:36;101381.34;;;8.40;100.00
10852;BME280;5479;52.046;6.314;2023-04-21T03:20:06;101388.41;;;8.61;100.00
10852;BME280;5479;52.046;6.314;2023-04-21T03:22:34;101372.47;;;8.63;100.00
10852;BME280;5479;52.046;6.314;2023-04-21T03:25:04;101383.38;;;8.55;100.00
10852;BME280;5479;52.046;6.314;2023-04-21T03:27:33;101381.06;;;8.47;100.00
10852;BME280;5479;52.046;6.314;2023-04-21T03:30:02;101373.13;;;8.47;100.00
10852;BME280;5479;52.046;6.314;2023-04-21T03:32:30;101370.88;;;8.38;100.00
10852;BME280;5479;52.046;6.314;2023-04-21T03:34:57;101370.63;;;8.44;100.00
10852;BME280;5479;52.046;6.314;2023-04-21T03:37:25;101371.03;;;8.56;100.00
10852;BME280;5479;52.046;6.314;2023-04-21T03:39:53;101364.03;;;8.55;100.00
10852;BME280;5479;52.046;6.314;2023-04-21T03:42:23;101363.25;;;8.53;100.00
10852;BME280;5479;52.046;6.314;2023-04-21T03:44:51;101372.19;;;8.48;100.00
10852;BME280;5479;52.046;6.314;2023-04-21T03:47:19;101365.09;;;8.51;100.00
10852;BME280;5479;52.046;6.314;2023-04-21T03:49:47;101354.91;;;8.41;100.00
10852;BME280;5479;52.046;6.314;2023-04-21T03:52:15;101357.59;;;8.40;100.00
10852;BME280;5479;52.046;6.314;2023-04-21T03:54:43;101352.31;;;8.40;100.00
10852;BME280;5479;52.046;6.314;2023-04-21T03:57:11;101360.31;;;8.38;100.00
10852;BME280;5479;52.046;6.314;2023-04-21T03:59:40;101357.59;;;8.40;100.00
10852;BME280;5479;52.046;6.314;2023-04-21T04:02:08;101349.63;;;8.41;100.00
10852;BME280;5479;52.046;6.314;2023-04-21T04:04:36;101350.09;;;8.51;100.00
10852;BME280;5479;52.046;6.314;2023-04-21T04:07:04;101361.72;;;8.47;100.00
10852;BME280;5479;52.046;6.314;2023-04-21T04:09:33;101359.66;;;8.54;100.00
10852;BME280;5479;52.046;6.314;2023-04-21T04:12:01;101357.97;;;8.53;100.00
10852;BME280;5479;52.046;6.314;2023-04-21T04:14:29;101359.66;;;8.54;100.00
10852;BME280;5479;52.046;6.314;2023-04-21T04:16:59;101359.06;;;8.47;100.00
10852;BME280;5479;52.046;6.314;2023-04-21T04:19:30;101359.06;;;8.47;100.00
10852;BME280;5479;52.046;6.314;2023-04-21T04:21:58;101354.66;;;8.47;100.00
10852;BME280;5479;52.046;6.314;2023-04-21T04:24:26;101362.25;;;8.55;100.00
10852;BME280;5479;52.046;6.314;2023-04-21T04:26:55;101361.75;;;8.45;100.00
10852;BME280;5479;52.046;6.314;2023-04-21T04:29:23;101356.22;;;8.52;100.00
10852;BME280;5479;52.046;6.314;2023-04-21T04:31:51;101347.78;;;8.43;100.00
10852;BME280;5479;52.046;6.314;2023-04-21T04:34:20;101358.09;;;8.49;100.00
10852;BME280;5479;52.046;6.314;2023-04-21T04:36:49;101359.66;;;8.54;100.00
10852;BME280;5479;52.046;6.314;2023-04-21T04:39:17;101362.13;;;8.58;100.00
10852;BME280;5479;52.046;6.314;2023-04-21T04:41:45;101371.56;;;8.64;100.00
10852;BME280;5479;52.046;6.314;2023-04-21T04:44:14;101355.84;;;8.61;100.00
10852;BME280;5479;52.046;6.314;2023-04-21T04:46:43;101348.97;;;8.57;100.00
10852;BME280;5479;52.046;6.314;2023-04-21T04:49:12;101348.72;;;8.63;100.00
10852;BME280;5479;52.046;6.314;2023-04-21T04:51:42;101348.72;;;8.63;100.00
10852;BME280;5479;52.046;6.314;2023-04-21T04:54:11;101340.06;;;8.59;100.00
10852;BME280;5479;52.046;6.314;2023-04-21T04:56:39;101354.88;;;8.63;100.00
10852;BME280;5479;52.046;6.314;2023-04-21T04:59:08;101372.84;;;8.54;100.00
10852;BME280;5479;52.046;6.314;2023-04-21T05:01:36;101367.44;;;8.57;100.00
10852;BME280;5479;52.046;6.314;2023-04-21T05:04:06;101365.22;;;8.68;100.00
10852;BME280;5479;52.046;6.314;2023-04-21T05:06:34;101355.44;;;8.70;100.00
10852;BME280;5479;52.046;6.314;2023-04-21T05:09:04;101353.63;;;8.72;100.00
10852;BME280;5479;52.046;6.314;2023-04-21T05:11:36;101359.69;;;8.74;100.00
10852;BME280;5479;52.046;6.314;2023-04-21T05:14:04;101358.69;;;8.76;100.00
10852;BME280;5479;52.046;6.314;2023-04-21T05:16:32;101374.59;;;8.75;100.00
10852;BME280;5479;52.046;6.314;2023-04-21T05:19:01;101368.16;;;8.82;100.00
10852;BME280;5479;52.046;6.314;2023-04-21T05:21:29;101376.97;;;8.81;100.00
10852;BME280;5479;52.046;6.314;2023-04-21T05:23:58;101368.34;;;8.77;100.00
10852;BME280;5479;52.046;6.314;2023-04-21T05:26:38;101374.34;;;8.81;100.00
10852;BME280;5479;52.046;6.314;2023-04-21T05:29:06;101379.38;;;8.87;100.00
10852;BME280;5479;52.046;6.314;2023-04-21T05:31:36;101378.38;;;8.89;100.00
10852;BME280;5479;52.046;6.314;2023-04-21T05:34:09;101388.94;;;8.89;100.00
10852;BME280;5479;52.046;6.314;2023-04-21T05:36:46;101380.94;;;8.91;100.00
10852;BME280;5479;52.046;6.314;2023-04-21T05:39:14;101376.81;;;8.85;100.00
10852;BME280;5479;52.046;6.314;2023-04-21T05:41:44;101383.44;;;8.94;100.00
10852;BME280;5479;52.046;6.314;2023-04-21T05:44:15;101380.34;;;9.04;100.00
10852;BME280;5479;52.046;6.314;2023-04-21T05:46:44;101379.63;;;9.01;100.00
10852;BME280;5479;52.046;6.314;2023-04-21T05:49:12;101384.63;;;9.07;100.00
10852;BME280;5479;52.046;6.314;2023-04-21T05:51:40;101385.56;;;9.06;100.00
10852;BME280;5479;52.046;6.314;2023-04-21T05:54:08;101386.09;;;9.14;100.00
10852;BME280;5479;52.046;6.314;2023-04-21T05:56:36;101386.09;;;9.14;100.00
10852;BME280;5479;52.046;6.314;2023-04-21T05:59:06;101381.97;;;9.27;100.00
10852;BME280;5479;52.046;6.314;2023-04-21T06:01:35;101373.19;;;9.27;100.00
10852;BME280;5479;52.046;6.314;2023-04-21T06:04:03;101368.69;;;9.29;100.00
10852;BME280;5479;52.046;6.314;2023-04-21T06:06:31;101372.78;;;9.36;100.00
10852;BME280;5479;52.046;6.314;2023-04-21T06:09:00;101370.34;;;9.31;100.00
10852;BME280;5479;52.046;6.314;2023-04-21T06:11:29;101356.78;;;9.39;100.00
10852;BME280;5479;52.046;6.314;2023-04-21T06:13:57;101369.66;;;9.46;100.00
10852;BME280;5479;52.046;6.314;2023-04-21T06:16:30;101367.72;;;9.50;100.00
10852;BME280;5479;52.046;6.314;2023-04-21T06:19:02;101358.78;;;9.52;100.00
10852;BME280;5479;52.046;6.314;2023-04-21T06:21:31;101366.72;;;9.52;100.00
10852;BME280;5479;52.046;6.314;2023-04-21T06:24:00;101364.88;;;9.54;100.00
10852;BME280;5479;52.046;6.314;2023-04-21T06:26:32;101369.22;;;9.55;100.00
10852;BME280;5479;52.046;6.314;2023-04-21T06:29:00;101377.78;;;9.60;100.00
10852;BME280;5479;52.046;6.314;2023-04-21T06:31:30;101379.78;;;9.55;100.00
10852;BME280;5479;52.046;6.314;2023-04-21T06:33:58;101374.88;;;9.66;100.00
10852;BME280;5479;52.046;6.314;2023-04-21T06:36:26;101378.81;;;9.77;100.00
10852;BME280;5479;52.046;6.314;2023-04-21T06:38:54;101377.38;;;9.69;100.00
10852;BME280;5479;52.046;6.314;2023-04-21T06:41:22;101363.88;;;9.76;100.00
10852;BME280;5479;52.046;6.314;2023-04-21T06:43:52;101368.09;;;9.80;100.00
10852;BME280;5479;52.046;6.314;2023-04-21T06:46:20;101366.38;;;9.79;100.00
10852;BME280;5479;52.046;6.314;2023-04-21T06:48:50;101355.34;;;9.88;100.00
10852;BME280;5479;52.046;6.314;2023-04-21T06:51:26;101361.09;;;9.97;100.00
10852;BME280;5479;52.046;6.314;2023-04-21T06:53:54;101363.63;;;9.99;100.00
10852;BME280;5479;52.046;6.314;2023-04-21T06:56:22;101363.63;;;9.99;100.00
10852;BME280;5479;52.046;6.314;2023-04-21T06:58:50;101363.09;;;9.92;100.00
10852;BME280;5479;52.046;6.314;2023-04-21T07:01:21;101368.06;;;9.98;100.00
10852;BME280;5479;52.046;6.314;2023-04-21T07:03:51;101366.00;;;10.05;100.00
10852;BME280;5479;52.046;6.314;2023-04-21T07:06:19;101360.94;;;10.19;100.00
10852;BME280;5479;52.046;6.314;2023-04-21T07:08:51;101365.38;;;10.18;100.00
10852;BME280;5479;52.046;6.314;2023-04-21T07:11:19;101370.06;;;10.12;100.00
10852;BME280;5479;52.046;6.314;2023-04-21T07:13:53;101368.22;;;10.14;100.00
10852;BME280;5479;52.046;6.314;2023-04-21T07:16:21;101370.28;;;10.07;100.00
10852;BME280;5479;52.046;6.314;2023-04-21T07:18:51;101358.84;;;10.07;100.00
10852;BME280;5479;52.046;6.314;2023-04-21T07:21:19;101362.00;;;10.15;100.00
10852;BME280;5479;52.046;6.314;2023-04-21T07:23:49;101360.94;;;10.19;100.00
10852;BME280;5479;52.046;6.314;2023-04-21T07:26:17;101368.31;;;10.12;100.00
10852;BME280;5479;52.046;6.314;2023-04-21T07:28:45;101365.38;;;10.18;100.00
10852;BME280;5479;52.046;6.314;2023-04-21T07:31:15;101362.00;;;10.15;100.00
10852;BME280;5479;52.046;6.314;2023-04-21T07:33:43;101355.66;;;10.19;100.00
10852;BME280;5479;52.046;6.314;2023-04-21T07:36:13;101362.63;;;10.20;100.00
10852;BME280;5479;52.046;6.314;2023-04-21T07:38:43;101368.22;;;10.14;100.00
10852;BME280;5479;52.046;6.314;2023-04-21T07:41:15;101366.06;;;10.22;100.00
10852;BME280;5479;52.046;6.314;2023-04-21T07:43:45;101354.78;;;10.18;100.00
10852;BME280;5479;52.046;6.314;2023-04-21T07:46:14;101350.34;;;10.19;100.00
10852;BME280;5479;52.046;6.314;2023-04-21T07:48:43;101351.28;;;10.18;100.00
10852;BME280;5479;52.046;6.314;2023-04-21T07:51:13;101354.56;;;10.23;100.00
10852;BME280;5479;52.046;6.314;2023-04-21T07:53:44;101351.31;;;10.35;100.00
10852;BME280;5479;52.046;6.314;2023-04-21T07:56:13;101357.00;;;10.45;100.00
10852;BME280;5479;52.046;6.314;2023-04-21T07:58:41;101358.00;;;10.42;100.00
10852;BME280;5479;52.046;6.314;2023-04-21T08:01:09;101358.31;;;10.36;100.00
10852;BME280;5479;52.046;6.314;2023-04-21T08:03:39;101355.41;;;10.41;100.00
10852;BME280;5479;52.046;6.314;2023-04-21T08:06:07;101357.16;;;10.42;100.00
10852;BME280;5479;52.046;6.314;2023-04-21T08:08:42;101358.53;;;10.49;100.00
10852;BME280;5479;52.046;6.314;2023-04-21T08:11:10;101359.09;;;10.55;100.00
10852;BME280;5479;52.046;6.314;2023-04-21T08:13:38;101348.75;;;10.51;100.00
10852;BME280;5479;52.046;6.314;2023-04-21T08:16:06;101353.88;;;10.71;100.00
10852;BME280;5479;52.046;6.314;2023-04-21T08:18:34;101353.19;;;10.67;100.00
10852;BME280;5479;52.046;6.314;2023-04-21T08:21:04;101347.56;;;10.73;100.00
10852;BME280;5479;52.046;6.314;2023-04-21T08:23:32;101351.91;;;10.91;100.00
10852;BME280;5479;52.046;6.314;2023-04-21T08:26:02;101354.56;;;11.09;100.00
10852;BME280;5479;52.046;6.314;2023-04-21T08:28:30;101352.69;;;11.11;100.00
10852;BME280;5479;52.046;6.314;2023-04-21T08:31:00;101352.09;;;11.21;100.00
10852;BME280;5479;52.046;6.314;2023-04-21T08:33:28;101348.78;;;11.18;100.00
10852;BME280;5479;52.046;6.314;2023-04-21T08:35:56;101343.53;;;11.16;100.00
10852;BME280;5479;52.046;6.314;2023-04-21T08:38:24;101344.69;;;11.28;100.00
10852;BME280;5479;52.046;6.314;2023-04-21T08:40:53;101344.38;;;11.34;100.00
10852;BME280;5479;52.046;6.314;2023-04-21T08:43:24;101352.50;;;11.31;100.00
10852;BME280;5479;52.046;6.314;2023-04-21T08:45:56;101347.03;;;11.34;100.00
10852;BME280;5479;52.046;6.314;2023-04-21T08:48:26;101359.03;;;11.24;100.00
10852;BME280;5479;52.046;6.314;2023-04-21T08:50:56;101356.13;;;11.13;100.00
10852;BME280;5479;52.046;6.314;2023-04-21T08:53:25;101360.63;;;11.11;100.00
10852;BME280;5479;52.046;6.314;2023-04-21T08:55:57;101363.13;;;11.14;100.00
10852;BME280;5479;52.046;6.314;2023-04-21T08:58:26;101362.66;;;11.23;100.00
10852;BME280;5479;52.046;6.314;2023-04-21T09:00:57;101358.25;;;11.39;100.00
10852;BME280;5479;52.046;6.314;2023-04-21T09:03:27;101353.28;;;11.48;100.00
10852;BME280;5479;52.046;6.314;2023-04-21T09:05:57;101354.16;;;11.65;100.00
10852;BME280;5479;52.046;6.314;2023-04-21T09:08:29;101367.63;;;11.77;100.00
10852;BME280;5479;52.046;6.314;2023-04-21T09:10:58;101357.88;;;11.93;100.00
10852;BME280;5479;52.046;6.314;2023-04-21T09:13:34;101363.78;;;11.98;100.00
10852;BME280;5479;52.046;6.314;2023-04-21T09:16:14;101357.09;;;12.23;100.00
10852;BME280;5479;52.046;6.314;2023-04-21T09:18:44;101357.91;;;12.39;100.00
10852;BME280;5479;52.046;6.314;2023-04-21T09:21:14;101349.31;;;12.35;100.00
10852;BME280;5479;52.046;6.314;2023-04-21T09:23:45;101354.69;;;12.34;100.00
10852;BME280;5479;52.046;6.314;2023-04-21T09:26:15;101348.03;;;12.27;100.00
10852;BME280;5479;52.046;6.314;2023-04-21T09:28:49;101352.06;;;12.18;100.00
10852;BME280;5479;52.046;6.314;2023-04-21T09:31:20;101348.44;;;12.35;100.00
10852;BME280;5479;52.046;6.314;2023-04-21T09:33:52;101353.47;;;12.39;100.00
10852;BME280;5479;52.046;6.314;2023-04-21T09:36:21;101356.81;;;12.43;100.00
10852;BME280;5479;52.046;6.314;2023-04-21T09:38:54;101359.88;;;12.51;100.00
10852;BME280;5479;52.046;6.314;2023-04-21T09:41:24;101354.41;;;12.68;100.00
10852;BME280;5479;52.046;6.314;2023-04-21T09:43:55;101360.94;;;12.92;100.00
10852;BME280;5479;52.046;6.314;2023-04-21T09:46:28;101359.56;;;12.71;100.00
10852;BME280;5479;52.046;6.314;2023-04-21T09:48:59;101353.88;;;12.77;100.00
10852;BME280;5479;52.046;6.314;2023-04-21T09:51:28;101351.22;;;12.77;100.00
10852;BME280;5479;52.046;6.314;2023-04-21T09:54:00;101362.78;;;12.76;100.00
10852;BME280;5479;52.046;6.314;2023-04-21T09:56:32;101355.97;;;12.72;100.00
10852;BME280;5479;52.046;6.314;2023-04-21T09:59:06;101362.31;;;12.69;100.00
10852;BME280;5479;52.046;6.314;2023-04-21T10:01:40;101344.69;;;12.53;100.00
10852;BME280;5479;52.046;6.314;2023-04-21T10:04:10;101344.28;;;12.75;100.00
10852;BME280;5479;52.046;6.314;2023-04-21T10:06:40;101344.75;;;13.11;100.00
10852;BME280;5479;52.046;6.314;2023-04-21T10:09:14;101345.78;;;12.94;100.00
10852;BME280;5479;52.046;6.314;2023-04-21T10:11:44;101340.06;;;13.00;100.00
10852;BME280;5479;52.046;6.314;2023-04-21T10:14:13;101338.59;;;13.24;100.00
10852;BME280;5479;52.046;6.314;2023-04-21T10:16:42;101337.53;;;13.27;100.00
10852;BME280;5479;52.046;6.314;2023-04-21T10:19:23;101335.75;;;13.56;100.00
10852;BME280;5479;52.046;6.314;2023-04-21T10:21:55;101326.53;;;13.47;100.00
10852;BME280;5479;52.046;6.314;2023-04-21T10:24:27;101328.88;;;13.66;100.00
10852;BME280;5479;52.046;6.314;2023-04-21T10:26:56;101320.22;;;13.76;100.00
10852;BME280;5479;52.046;6.314;2023-04-21T10:29:30;101317.97;;;13.97;100.00
10852;BME280;5479;52.046;6.314;2023-04-21T10:31:59;101307.41;;;13.69;100.00
10852;BME280;5479;52.046;6.314;2023-04-21T10:34:29;101310.16;;;13.67;100.00
10852;BME280;5479;52.046;6.314;2023-04-21T10:37:11;101306.41;;;13.84;100.00
10852;BME280;5479;52.046;6.314;2023-04-21T10:39:44;101311.22;;;14.18;100.00
10852;BME280;5479;52.046;6.314;2023-04-21T10:42:22;101304.81;;;14.35;100.00
10852;BME280;5479;52.046;6.314;2023-04-21T10:44:59;101302.06;;;14.10;100.00
10852;BME280;5479;52.046;6.314;2023-04-21T10:47:29;101300.56;;;14.32;100.00
10852;BME280;5479;52.046;6.314;2023-04-21T10:50:11;101303.91;;;14.61;100.00
10852;BME280;5479;52.046;6.314;2023-04-21T10:52:43;101300.19;;;14.24;100.00
10852;BME280;5479;52.046;6.314;2023-04-21T10:55:13;101289.63;;;14.49;100.00
10852;BME280;5479;52.046;6.314;2023-04-21T10:57:44;101291.78;;;14.70;100.00
10852;BME280;5479;52.046;6.314;2023-04-21T11:00:19;101287.50;;;14.80;100.00
10852;BME280;5479;52.046;6.314;2023-04-21T11:03:00;101285.16;;;14.88;100.00
10852;BME280;5479;52.046;6.314;2023-04-21T11:05:31;101278.34;;;14.84;100.00
10852;BME280;5479;52.046;6.314;2023-04-21T11:08:05;101272.16;;;14.96;100.00
10852;BME280;5479;52.046;6.314;2023-04-21T11:10:53;101270.25;;;14.73;100.00
10852;BME280;5479;52.046;6.314;2023-04-21T11:13:26;101262.66;;;14.54;100.00
10852;BME280;5479;52.046;6.314;2023-04-21T11:16:02;101266.31;;;14.66;100.00
10852;BME280;5479;52.046;6.314;2023-04-21T11:18:41;101279.53;;;14.28;100.00
10852;BME280;5479;52.046;6.314;2023-04-21T11:21:14;101268.75;;;14.29;100.00
10852;BME280;5479;52.046;6.314;2023-04-21T11:23:48;101265.53;;;14.24;100.00
10852;BME280;5479;52.046;6.314;2023-04-21T11:26:18;101267.91;;;14.02;100.00
10852;BME280;5479;52.046;6.314;2023-04-21T11:28:59;101267.88;;;14.16;100.00
10852;BME280;5479;52.046;6.314;2023-04-21T11:31:31;101251.44;;;14.36;100.00
10852;BME280;5479;52.046;6.314;2023-04-21T11:34:01;101245.91;;;14.77;100.00
10852;BME280;5479;52.046;6.314;2023-04-21T11:36:31;101237.56;;;15.32;100.00
10852;BME280;5479;52.046;6.314;2023-04-21T11:39:03;101236.16;;;15.76;100.00
10852;BME280;5479;52.046;6.314;2023-04-21T11:41:33;101238.66;;;15.66;100.00
10852;BME280;5479;52.046;6.314;2023-04-21T11:44:03;101239.25;;;15.46;100.00
10852;BME280;5479;52.046;6.314;2023-04-21T11:46:33;101243.50;;;15.36;100.00
10852;BME280;5479;52.046;6.314;2023-04-21T11:49:03;101238.66;;;15.04;100.00
10852;BME280;5479;52.046;6.314;2023-04-21T11:51:34;101239.09;;;14.61;100.00
10852;BME280;5479;52.046;6.314;2023-04-21T11:54:04;101241.44;;;14.52;100.00
10852;BME280;5479;52.046;6.314;2023-04-21T11:56:35;101237.47;;;14.96;100.00
10852;BME280;5479;52.046;6.314;2023-04-21T11:59:07;101233.06;;;15.20;100.00
10852;BME280;5479;52.046;6.314;2023-04-21T12:01:43;101224.78;;;15.61;100.00
10852;BME280;5479;52.046;6.314;2023-04-21T12:04:15;101232.50;;;15.53;100.00
10852;BME280;5479;52.046;6.314;2023-04-21T12:06:43;101232.56;;;15.64;100.00
10852;BME280;5479;52.046;6.314;2023-04-21T12:09:19;101238.88;;;15.87;100.00
10852;BME280;5479;52.046;6.314;2023-04-21T12:11:47;101224.72;;;15.97;100.00
10852;BME280;5479;52.046;6.314;2023-04-21T12:14:18;101223.44;;;15.30;100.00
10852;BME280;5479;52.046;6.314;2023-04-21T12:16:49;101207.63;;;15.40;100.00
10852;BME280;5479;52.046;6.314;2023-04-21T12:19:21;101200.72;;;15.37;100.00
10852;BME280;5479;52.046;6.314;2023-04-21T12:21:52;101208.91;;;15.59;100.00
10852;BME280;5479;52.046;6.314;2023-04-21T12:24:21;101209.63;;;15.61;100.00
10852;BME280;5479;52.046;6.314;2023-04-21T12:26:49;101190.88;;;15.74;100.00
10852;BME280;5479;52.046;6.314;2023-04-21T12:29:19;101192.25;;;15.43;100.00
10852;BME280;5479;52.046;6.314;2023-04-21T12:31:49;101189.56;;;15.80;100.00
10852;BME280;5479;52.046;6.314;2023-04-21T12:34:17;101191.03;;;15.84;100.00
10852;BME280;5479;52.046;6.314;2023-04-21T12:36:45;101196.41;;;15.95;100.00
10852;BME280;5479;52.046;6.314;2023-04-21T12:39:14;101186.72;;;15.94;100.00
10852;BME280;5479;52.046;6.314;2023-04-21T12:41:42;101180.44;;;16.06;100.00
10852;BME280;5479;52.046;6.314;2023-04-21T12:44:13;101187.13;;;16.11;100.00
10852;BME280;5479;52.046;6.314;2023-04-21T12:46:41;101174.81;;;16.44;100.00
10852;BME280;5479;52.046;6.314;2023-04-21T12:49:10;101175.13;;;16.63;100.00
10852;BME280;5479;52.046;6.314;2023-04-21T12:51:47;101169.41;;;17.12;100.00
10852;BME280;5479;52.046;6.314;2023-04-21T12:54:15;101169.19;;;17.04;100.00
10852;BME280;5479;52.046;6.314;2023-04-21T12:56:45;101161.88;;;17.17;100.00
10852;BME280;5479;52.046;6.314;2023-04-21T12:59:13;101159.47;;;17.45;100.00
10852;BME280;5479;52.046;6.314;2023-04-21T13:01:44;101144.28;;;17.46;100.00
10852;BME280;5479;52.046;6.314;2023-04-21T13:04:13;101137.97;;;17.36;100.00
10852;BME280;5479;52.046;6.314;2023-04-21T13:06:41;101130.75;;;16.94;100.00
10852;BME280;5479;52.046;6.314;2023-04-21T13:09:13;101130.09;;;17.12;100.00